Flight Track Log - Related Links

Times and Time Zones

All times are in EDT time to prevent confusion due to time zone crossing. See the N211RN flight status page for this flight to view local times or setup timezone preferences in your user account.

Time Position Orientation Groundspeed Altitude Reporting Facility
EDT Latitude Longitude Course Direction KTS MPH feet Rate Location/Type
Wed 06:46:31 AM 39.2144 -80.3392 235° Southwest 246 283 7,900  Level Cleveland Center
Wed 06:47:23 AM 39.1808 -80.4006 235° Southwest 247 284 9,500 1,381 Climbing Indianapolis Center
Wed 06:48:24 AM 39.1361 -80.4772 233° Southwest 262 302 10,500 1,967 Climbing Indianapolis Center
Wed 06:49:25 AM 39.0861 -80.5608 232° Southwest 282 325 13,500 3,443 Climbing Indianapolis Center
Wed 06:50:26 AM 39.0342 -80.6450 232° Southwest 296 341 17,500 3,443 Climbing Indianapolis Center
Wed 06:51:27 AM 38.9892 -80.7217 233° Southwest 278 320 20,500 2,331 Climbing Indianapolis Center
Wed 06:52:27 AM 38.9383 -80.8061 232° Southwest 287 330 22,200 1,289 Climbing Indianapolis Center
Wed 06:53:28 AM 38.8797 -80.9042 233° Southwest 330 380 23,100 1,426 Climbing Indianapolis Center
Wed 06:54:29 AM 38.8178 -81.0056 232° Southwest 353 406 25,100 2,607 Climbing Indianapolis Center
Wed 06:55:30 AM 38.7614 -81.0981 232° Southwest 345 397 28,400 2,311 Climbing Indianapolis Center
Wed 06:56:31 AM 38.7067 -81.1864 232° Southwest 322 371 29,800 1,240 Climbing Indianapolis Center
Wed 06:57:31 AM 38.6461 -81.2861 232° Southwest 343 395 30,900 595 Climbing Indianapolis Center
Wed 06:58:32 AM 38.5808 -81.3911 232° Southwest 364 419 31,000 49 Climbing Indianapolis Center
Wed 06:59:33 AM 38.5233 -81.5117 239° Southwest 385 443 31,000 590 Level Indianapolis Center
Wed 07:00:34 AM 38.4719 -81.6331 242° Southwest 387 445 32,200 1,967 Climbing Indianapolis Center
Wed 07:01:35 AM 38.4219 -81.7392 239° Southwest 355 409 35,000 2,016 Climbing Indianapolis Center
Wed 07:02:36 AM 38.3486 -81.8025 214° Southwest 324 373 36,300 1,240 Climbing Indianapolis Center
Wed 07:03:36 AM 38.2731 -81.8678 214° Southwest 325 374 37,500 1,289 Climbing Indianapolis Center
Wed 07:04:37 AM 38.1986 -81.9344 215° Southwest 327 376 38,900 1,623 Climbing Indianapolis Center
Wed 07:05:38 AM 38.1128 -82.0103 215° Southwest 314 361 40,800 1,377 Climbing Indianapolis Center
Wed 07:06:39 AM 38.0453 -82.0700 215° Southwest 302 348 41,700 738 Climbing Indianapolis Center
Wed 07:07:40 AM 37.9756 -82.1317 215° Southwest 301 346 42,300 426 Climbing Indianapolis Center
Wed 07:09:42 AM 37.8303 -82.2589 215° Southwest 320 368 43,000 230 Climbing Indianapolis Center
Wed 07:10:43 AM 37.7531 -82.3267 215° Southwest 333 383 43,000 98 Level Indianapolis Center
Wed 07:11:44 AM 37.6739 -82.3958 215° Southwest 340 391 43,200 393 Climbing Indianapolis Center
Wed 07:12:45 AM 37.5950 -82.4647 215° Southwest 342 394 43,800 541 Climbing Indianapolis Center
Wed 07:13:46 AM 37.5161 -82.5331 214° Southwest 342 394 44,300 492 Climbing Indianapolis Center
Wed 07:14:47 AM 37.4364 -82.6022 215° Southwest 343 395 44,800 344 Climbing Indianapolis Center
Wed 07:15:48 AM 37.3556 -82.6719 214° Southwest 349 402 45,000 98 Climbing Indianapolis Center
Wed 07:16:49 AM 37.2589 -82.7553 214° Southwest 356 410 45,000  Level Indianapolis Center
Wed 07:17:50 AM 37.1747 -82.8283 215° Southwest 363 418 45,000  Level Indianapolis Center
Wed 07:18:51 AM 37.0883 -82.9025 214° Southwest 372 428 45,000  Level Indianapolis Center
Wed 07:19:52 AM 37.0025 -82.9775 215° Southwest 377 434 45,000  Level Indianapolis Center
Wed 07:20:53 AM 36.9153 -83.0489 213° Southwest 381 438 45,000  Level Indianapolis Center
Wed 07:21:55 AM 36.8289 -83.1231 215° Southwest 381 438 45,000  Level Indianapolis Center
Wed 07:22:56 AM 36.7283 -83.2069 214° Southwest 378 435 45,000  Level Indianapolis Center
Wed 07:23:57 AM 36.6422 -83.2797 214° Southwest 377 434 45,000 -49 Level Indianapolis Center
Wed 07:24:58 AM 36.5569 -83.3517 214° Southwest 373 429 44,900  Descending Indianapolis Center
Wed 07:25:59 AM 36.4711 -83.4236 214° Southwest 372 428 45,000 49 Climbing Indianapolis Center
Wed 07:27:01 AM 36.3853 -83.4944 214° Southwest 372 428 45,000  Level Indianapolis Center
Wed 07:28:02 AM 36.3072 -83.5606 214° Southwest 372 428 45,000  Level Indianapolis Center
Wed 07:29:03 AM 36.2217 -83.6308 214° Southwest 371 427 45,000  Level Indianapolis Center
Wed 07:30:04 AM 36.1192 -83.7156 214° Southwest 368 423 45,000  Level Indianapolis Center
Wed 07:31:05 AM 36.0350 -83.7869 214° Southwest 373 429 45,000  Level Atlanta Center
Wed 07:32:05 AM 35.9517 -83.8567 214° Southwest 373 429 45,000  Level Atlanta Center
Wed 07:33:05 AM 35.8664 -83.9233 212° Southwest 373 429 45,000  Level Atlanta Center
Wed 07:34:05 AM 35.7789 -83.9850 210° Southwest 368 423 45,000  Level Atlanta Center
Wed 07:35:05 AM 35.6911 -84.0464 210° Southwest 368 423 45,000  Level Atlanta Center
Wed 07:36:05 AM 35.6056 -84.1103 211° Southwest 363 418 45,000  Level Atlanta Center
Wed 07:37:05 AM 35.5306 -84.1639 210° Southwest 358 412 45,000  Level Atlanta Center
Wed 07:38:05 AM 35.4447 -84.2222 209° Southwest 358 412 45,000  Level Atlanta Center
Wed 07:39:05 AM 35.3592 -84.2833 210° Southwest 358 412 45,000  Level Atlanta Center
Wed 07:40:05 AM 35.2756 -84.3414 210° Southwest 358 412 45,000  Level Atlanta Center
Wed 07:41:05 AM 35.1900 -84.4047 211° Southwest 358 412 45,000  Level Atlanta Center
Wed 07:42:05 AM 35.1061 -84.4628 210° Southwest 358 412 45,000  Level Atlanta Center
Wed 07:43:05 AM 35.0225 -84.5206 210° Southwest 358 412 45,000  Level Atlanta Center
Wed 07:44:05 AM 34.9389 -84.5808 211° Southwest 358 412 45,000  Level Atlanta Center
Wed 07:45:05 AM 34.8572 -84.6386 210° Southwest 358 412 45,000 -50 Level Atlanta Center
Wed 07:46:05 AM 34.7733 -84.6989 211° Southwest 358 412 44,900 -550 Descending Atlanta Center
Wed 07:47:05 AM 34.6917 -84.7564 210° Southwest 353 406 43,900 -1,050 Descending Atlanta Center
Wed 07:48:05 AM 34.6164 -84.8086 210° Southwest 344 396 42,800 -1,150 Descending Atlanta Center
Wed 07:49:05 AM 34.5428 -84.8608 210° Southwest 317 365 41,600 -1,300 Descending Atlanta Center
Wed 07:50:05 AM 34.4633 -84.9131 208° Southwest 317 365 40,200 -1,400 Descending Atlanta Center
Wed 07:51:05 AM 34.3856 -84.9700 211° Southwest 317 365 38,800 -1,350 Descending Atlanta Center
Wed 07:52:05 AM 34.3017 -85.0294 210° Southwest 339 390 37,500 -1,350 Descending Atlanta Center
Wed 07:53:05 AM 34.2072 -85.0936 209° Southwest 346 398 36,100 3,750 Descending Atlanta Center
Wed 07:54:05 AM 34.1189 -85.1528 209° Southwest 362 417 45,000 -1,450 Climbing Atlanta Center
Wed 07:55:05 AM 34.0308 -85.2194 212° Southwest 368 423 33,200 -6,550 Descending Atlanta Center
Wed 07:56:05 AM 33.9403 -85.2783 208° Southwest 368 423 31,900 -1,350 Descending Atlanta Center
Wed 07:57:05 AM 33.8500 -85.3419 210° Southwest 374 430 30,500 -1,400 Descending Atlanta Center
Wed 07:58:05 AM 33.7594 -85.4081 211° Southwest 379 436 29,100 -1,250 Descending Atlanta Center
Wed 07:59:05 AM 33.6692 -85.4692 209° Southwest 379 436 28,000 -550 Descending Atlanta Center
Wed 08:00:05 AM 33.5869 -85.5275 211° Southwest 369 425 28,000 -250 Level Atlanta Center
Wed 08:01:05 AM 33.5092 -85.5811 210° Southwest 338 389 27,500 -1,200 Descending Atlanta Center
Wed 08:02:05 AM 33.4228 -85.6417 210° Southwest 348 400 25,600 -1,900 Descending Atlanta Center
Wed 08:03:05 AM 33.3344 -85.6997 209° Southwest 365 420 23,700 -1,800 Descending Atlanta Center
Wed 08:04:05 AM 33.2481 -85.7503 206° Southwest 355 409 22,000 -1,800 Descending Atlanta Center
Wed 08:05:05 AM 33.1700 -85.8083 212° Southwest 350 403 20,100 -1,500 Descending Atlanta Center
Wed 08:06:05 AM 33.0942 -85.8589 209° Southwest 336 387 19,000 -550 Descending Atlanta Center
Wed 08:07:05 AM 33.0225 -85.9069 209° Southwest 323 372 19,000 -850 Level Atlanta Center
Wed 08:08:05 AM 32.9464 -85.9597 210° Southwest 316 364 17,300 -1,902 Descending Atlanta Center
Wed 08:08:27 AM 32.9086 -85.9689 192° South 326 375 16,400 -1,900 Descending Atlanta Center
Wed 08:09:05 AM 32.8706 -86.0075 220° Southwest 316 364 15,400 -1,776 Descending Atlanta Center
Wed 08:10:05 AM 32.7925 -86.0650 212° Southwest 316 364 13,500 -1,950 Descending Atlanta Center
Wed 08:11:05 AM 32.7208 -86.1028 204° Southwest 316 364 11,500 -1,950 Descending Atlanta Center
Wed 08:12:05 AM 32.6453 -86.1308 197° South 305 351 9,600 -2,049 Descending Atlanta Center
Wed 08:12:27 AM 32.6075 -86.1422 194° South 258 297 8,700 -1,900 Descending Atlanta Center
Wed 08:13:05 AM 32.5778 -86.1611 208° Southwest 280 322 7,700 -1,837 Descending Atlanta Center
Wed 08:14:05 AM 32.5086 -86.1892 199° South 273 314 5,700 -1,950 Descending Atlanta Center
Wed 08:15:05 AM 32.4433 -86.2147 198° South 267 307 3,800 -1,550 Descending Atlanta Center
Wed 08:16:05 AM 32.3803 -86.2400 199° South 255 293 2,600 -867 Descending Atlanta Center
Wed 08:16:28 AM 32.3469 -86.2392 179° South 204 235 2,600 -100 Level Atlanta Center
Wed 08:17:05 AM 32.3325 -86.2217 134° Southeast 200 230 2,500 -309 Descending Atlanta Center
Wed 08:18:05 AM 32.2908 -86.2281 187° South 176 203 2,100 -502 Descending Atlanta Center
Wed 08:20:28 AM 32.2925 -86.3558 271° West 130 150 800 -545 Descending Atlanta Center
Wed 08:22:00 AM 32.3000 -86.3833 209° Southwest  Level FlightAware Approximate

Login

Don't have an account? Register now (free) for customized features, flight alerts, and more!